createdAt,value
2022-09-07T00:01:24.417Z,9.06
2022-09-07T00:03:59.614Z,9.09
2022-09-07T00:06:28.554Z,9.09
2022-09-07T00:08:57.736Z,9.13
2022-09-07T00:11:26.562Z,9.12
2022-09-07T00:13:55.941Z,9.14
2022-09-07T00:16:31.784Z,9.17
2022-09-07T00:19:03.508Z,9.26
2022-09-07T00:21:33.091Z,9.34
2022-09-07T00:24:01.933Z,9.52
2022-09-07T00:26:32.421Z,9.59
2022-09-07T00:29:03.458Z,9.60
2022-09-07T00:31:32.887Z,9.61
2022-09-07T00:34:03.348Z,9.64
2022-09-07T00:36:32.286Z,9.73
2022-09-07T00:39:01.053Z,9.78
2022-09-07T00:41:29.858Z,9.85
2022-09-07T00:44:19.909Z,9.86
2022-09-07T00:46:48.762Z,9.85
2022-09-07T00:49:22.238Z,9.85
2022-09-07T00:51:55.765Z,9.88
2022-09-07T00:54:34.937Z,9.89
2022-09-07T00:57:03.883Z,10.01
2022-09-07T00:59:48.160Z,10.11
2022-09-07T01:02:18.794Z,10.29
2022-09-07T01:04:52.569Z,10.43
2022-09-07T01:07:21.430Z,10.49
2022-09-07T01:09:51.680Z,10.49
2022-09-07T01:12:20.682Z,10.41
2022-09-07T01:14:52.860Z,10.32
2022-09-07T01:17:59.840Z,10.37
2022-09-07T01:20:51.076Z,10.42
2022-09-07T01:23:34.128Z,10.48
2022-09-07T01:26:24.190Z,10.56
2022-09-07T01:29:07.283Z,10.63
2022-09-07T01:32:06.273Z,10.75
2022-09-07T01:34:35.054Z,10.81
2022-09-07T01:37:20.629Z,11.12
2022-09-07T01:39:57.556Z,11.30
2022-09-07T01:42:31.857Z,11.49
2022-09-07T01:45:11.957Z,11.50
2022-09-07T01:47:52.963Z,11.57
2022-09-07T01:51:03.310Z,11.75
2022-09-07T01:53:32.168Z,11.86
2022-09-07T01:56:09.509Z,11.93
2022-09-07T01:58:52.493Z,12.05
2022-09-07T02:01:54.813Z,12.09
2022-09-07T02:04:32.157Z,12.11
2022-09-07T02:07:10.010Z,12.11
2022-09-07T02:10:04.304Z,12.14
2022-09-07T02:12:46.062Z,12.16
2022-09-07T02:15:25.703Z,12.24
2022-09-07T02:17:59.160Z,12.32
2022-09-07T02:20:36.207Z,12.39
2022-09-07T02:23:12.210Z,12.48
2022-09-07T02:25:48.803Z,12.48
2022-09-07T02:28:23.175Z,12.58
2022-09-07T02:30:52.169Z,12.65
2022-09-07T02:33:21.168Z,12.64
2022-09-07T02:35:50.537Z,12.74
2022-09-07T02:38:20.170Z,12.73
2022-09-07T02:40:56.998Z,12.75
2022-09-07T02:43:26.488Z,12.86
2022-09-07T02:45:55.539Z,13.04
2022-09-07T02:48:40.400Z,13.06
2022-09-07T02:51:12.242Z,13.09
2022-09-07T02:54:14.359Z,13.24
2022-09-07T02:56:57.667Z,13.45
2022-09-07T02:59:38.389Z,13.51
2022-09-07T03:02:36.583Z,13.56
2022-09-07T03:05:21.171Z,13.71
2022-09-07T03:08:05.125Z,14.00
2022-09-07T03:10:34.843Z,14.39
2022-09-07T03:13:03.874Z,14.70
2022-09-07T03:15:32.709Z,14.92
2022-09-07T03:18:01.630Z,15.09
2022-09-07T03:20:30.436Z,15.15
2022-09-07T03:22:59.176Z,15.19
2022-09-07T03:25:27.972Z,15.20
2022-09-07T03:27:57.491Z,15.20
2022-09-07T03:30:26.271Z,15.19
2022-09-07T03:32:55.041Z,15.16
2022-09-07T03:35:23.914Z,14.91
2022-09-07T03:37:52.790Z,14.85
2022-09-07T03:40:21.559Z,14.78
2022-09-07T03:42:51.415Z,14.81
2022-09-07T03:45:20.603Z,14.75
2022-09-07T03:47:50.300Z,14.66
2022-09-07T03:50:19.153Z,14.70
2022-09-07T03:52:47.952Z,14.81
2022-09-07T03:55:16.816Z,14.92
2022-09-07T03:57:45.598Z,15.12
2022-09-07T04:00:15.410Z,15.42
2022-09-07T04:02:44.314Z,15.68
2022-09-07T04:05:13.166Z,15.83
2022-09-07T04:07:41.968Z,15.83
2022-09-07T04:10:10.841Z,16.03
2022-09-07T04:12:40.295Z,16.49
2022-09-07T04:15:09.700Z,16.82
2022-09-07T04:17:38.412Z,17.18
2022-09-07T04:20:07.987Z,17.37
2022-09-07T04:22:36.740Z,17.23
2022-09-07T04:25:05.944Z,16.96
2022-09-07T04:27:34.706Z,16.69
2022-09-07T04:30:03.481Z,16.31
2022-09-07T04:32:32.170Z,16.03
2022-09-07T04:35:00.921Z,15.85
2022-09-07T04:37:31.252Z,15.78
2022-09-07T04:40:00.083Z,15.70
2022-09-07T04:42:28.917Z,15.51
2022-09-07T04:44:57.982Z,15.19
2022-09-07T04:47:26.919Z,14.86
2022-09-07T04:49:55.915Z,14.40
2022-09-07T04:52:25.372Z,14.07
2022-09-07T04:54:54.160Z,13.82
2022-09-07T04:57:26.406Z,13.62
2022-09-07T04:59:55.678Z,13.46
2022-09-07T05:02:25.178Z,13.41
2022-09-07T05:04:54.074Z,13.37
2022-09-07T05:07:22.962Z,13.39
2022-09-07T05:09:51.839Z,13.32
2022-09-07T05:12:21.278Z,13.27
2022-09-07T05:14:50.215Z,13.30
2022-09-07T05:17:19.904Z,13.34
2022-09-07T05:19:49.420Z,13.31
2022-09-07T05:22:18.289Z,13.29
2022-09-07T05:24:48.788Z,13.20
2022-09-07T05:27:17.909Z,13.05
2022-09-07T05:30:03.979Z,12.93
2022-09-07T05:32:33.918Z,12.88
2022-09-07T05:35:02.650Z,12.90
2022-09-07T05:37:31.551Z,13.00
2022-09-07T05:40:00.367Z,13.03
2022-09-07T05:42:29.218Z,13.06
2022-09-07T05:44:58.524Z,13.04
2022-09-07T05:47:28.442Z,13.10
2022-09-07T05:49:57.386Z,13.14
2022-09-07T05:52:26.384Z,13.26
2022-09-07T05:55:07.488Z,13.33
2022-09-07T05:57:44.053Z,13.31
2022-09-07T06:00:15.112Z,13.23
2022-09-07T06:02:44.079Z,13.18
2022-09-07T06:05:13.012Z,13.27
2022-09-07T06:07:41.965Z,13.37
2022-09-07T06:12:59.486Z,13.32
2022-09-07T06:15:28.255Z,13.31
2022-09-07T06:17:57.134Z,13.40
2022-09-07T06:20:26.003Z,13.51
2022-09-07T06:22:54.751Z,13.56
2022-09-07T06:25:23.638Z,13.49
2022-09-07T06:27:54.524Z,13.33
2022-09-07T06:30:23.343Z,13.22
2022-09-07T06:32:52.377Z,13.18
2022-09-07T06:35:21.391Z,13.18
2022-09-07T06:37:50.148Z,13.12
2022-09-07T06:40:19.042Z,13.11
2022-09-07T06:42:47.798Z,13.08
2022-09-07T06:45:17.948Z,13.01
2022-09-07T06:47:46.782Z,12.92
2022-09-07T06:50:15.719Z,12.81
2022-09-07T06:55:33.507Z,12.98
2022-09-07T06:58:02.308Z,13.11
2022-09-07T07:00:31.440Z,13.16
2022-09-07T07:03:01.342Z,13.10
2022-09-07T07:05:35.162Z,13.05
2022-09-07T07:08:04.132Z,12.97
2022-09-07T07:10:36.975Z,12.91
2022-09-07T07:13:05.721Z,12.84
2022-09-07T07:15:34.882Z,12.81
2022-09-07T07:18:19.968Z,12.85
2022-09-07T07:20:49.875Z,12.84
2022-09-07T07:23:18.756Z,12.90
2022-09-07T07:25:47.573Z,12.97
2022-09-07T07:31:10.408Z,13.31
2022-09-07T07:33:42.149Z,13.34
2022-09-07T07:36:28.109Z,13.22
2022-09-07T07:44:21.575Z,12.98
2022-09-07T07:46:53.404Z,12.89
2022-09-07T07:49:22.304Z,12.81
2022-09-07T07:54:39.933Z,12.97
2022-09-07T07:57:08.981Z,13.01
2022-09-07T07:59:37.741Z,12.97
2022-09-07T08:02:10.755Z,12.87
2022-09-07T08:04:39.722Z,12.91
2022-09-07T08:07:11.212Z,12.84
2022-09-07T08:09:41.702Z,12.76
2022-09-07T08:12:12.740Z,12.83
2022-09-07T08:14:42.022Z,12.94
2022-09-07T08:17:13.189Z,12.96
2022-09-07T08:19:42.712Z,12.96
2022-09-07T08:22:12.759Z,13.04
2022-09-07T08:24:41.534Z,12.99
2022-09-07T08:27:10.291Z,12.86
2022-09-07T08:29:39.026Z,12.89
2022-09-07T08:32:07.796Z,12.91
2022-09-07T08:34:37.934Z,12.88
2022-09-07T08:37:06.889Z,12.82
2022-09-07T08:39:36.666Z,12.74
2022-09-07T08:42:26.054Z,12.71
2022-09-07T08:45:12.363Z,12.70
2022-09-07T08:47:46.854Z,12.70
2022-09-07T08:50:22.617Z,12.74
2022-09-07T08:53:20.453Z,12.83
2022-09-07T08:56:13.126Z,12.94
2022-09-07T08:58:53.901Z,13.02
2022-09-07T09:01:41.586Z,13.15
2022-09-07T09:04:17.233Z,13.26
2022-09-07T09:07:20.745Z,13.46
2022-09-07T09:10:34.035Z,13.66
2022-09-07T09:13:26.440Z,13.75
2022-09-07T09:16:15.181Z,13.76
2022-09-07T09:18:59.631Z,13.62
2022-09-07T09:21:28.732Z,13.52
2022-09-07T09:24:06.501Z,13.45
2022-09-07T09:26:36.138Z,13.27
2022-09-07T09:29:19.666Z,13.06
2022-09-07T09:31:48.689Z,12.96
2022-09-07T09:34:23.666Z,12.96
2022-09-07T09:36:57.166Z,12.99
2022-09-07T09:39:34.981Z,12.94
2022-09-07T09:42:17.389Z,12.90
2022-09-07T09:44:46.374Z,12.88
2022-09-07T09:47:30.569Z,12.93
2022-09-07T09:50:05.692Z,12.94
2022-09-07T09:52:47.659Z,12.93
2022-09-07T09:55:35.327Z,12.86
2022-09-07T10:06:23.791Z,12.52
2022-09-07T10:09:01.207Z,12.44
2022-09-07T10:14:47.294Z,12.46
2022-09-07T10:17:41.921Z,12.42
2022-09-07T10:20:16.798Z,12.44
2022-09-07T10:22:57.693Z,12.42
2022-09-07T10:25:38.313Z,12.42
2022-09-07T10:28:19.248Z,12.45
2022-09-07T10:31:03.109Z,12.50
2022-09-07T10:36:53.272Z,12.52
2022-09-07T10:39:27.808Z,12.58
2022-09-07T10:42:22.898Z,12.60
2022-09-07T10:44:58.710Z,12.60
2022-09-07T10:47:39.342Z,12.60
2022-09-07T10:50:32.740Z,12.60
2022-09-07T10:53:23.849Z,12.56
2022-09-07T10:56:04.828Z,12.50
2022-09-07T10:59:06.842Z,12.44
2022-09-07T11:01:41.884Z,12.33
2022-09-07T11:04:35.108Z,12.25
2022-09-07T11:07:21.228Z,12.22
2022-09-07T11:10:02.132Z,12.18
2022-09-07T11:12:40.382Z,12.13
2022-09-07T11:15:23.016Z,12.09
2022-09-07T11:18:08.113Z,12.04
2022-09-07T11:20:55.834Z,12.07
2022-09-07T11:23:46.004Z,12.07
2022-09-07T11:26:41.126Z,12.04
2022-09-07T11:29:31.134Z,11.99
2022-09-07T11:32:08.222Z,11.90
2022-09-07T11:34:40.633Z,11.80
2022-09-07T11:37:24.246Z,11.61
2022-09-07T11:40:15.051Z,11.52
2022-09-07T11:43:18.939Z,11.42
2022-09-07T11:45:54.323Z,11.38
2022-09-07T11:48:43.216Z,11.32
2022-09-07T11:51:16.905Z,11.27
2022-09-07T11:53:54.834Z,11.24
2022-09-07T11:56:36.236Z,11.20
2022-09-07T11:59:14.239Z,11.17
2022-09-07T12:02:07.013Z,11.15
2022-09-07T12:05:01.567Z,11.13
2022-09-07T12:08:00.791Z,11.13
2022-09-07T12:10:35.509Z,11.14
2022-09-07T12:13:16.460Z,11.12
2022-09-07T12:16:06.116Z,11.06
2022-09-07T12:18:54.123Z,11.11
2022-09-07T12:21:48.007Z,11.07
2022-09-07T12:24:45.323Z,11.08
2022-09-07T12:27:23.265Z,11.07
2022-09-07T12:29:58.486Z,11.07
2022-09-07T12:32:57.383Z,11.07
2022-09-07T12:35:42.725Z,11.07
2022-09-07T12:38:14.596Z,11.08
2022-09-07T12:41:07.787Z,11.08
2022-09-07T12:44:06.808Z,11.11
2022-09-07T12:46:35.683Z,11.13
2022-09-07T12:49:33.691Z,11.11
2022-09-07T12:52:16.106Z,11.11
2022-09-07T12:55:23.499Z,11.06
2022-09-07T12:58:26.671Z,11.08
2022-09-07T13:01:36.916Z,11.07
2022-09-07T13:04:42.911Z,11.06
2022-09-07T13:07:32.734Z,11.07
2022-09-07T13:10:04.560Z,11.08
2022-09-07T13:13:00.374Z,11.06
2022-09-07T13:16:12.665Z,11.11
2022-09-07T13:18:44.402Z,11.12
2022-09-07T13:21:14.568Z,11.11
2022-09-07T13:23:48.374Z,11.09
2022-09-07T13:26:54.379Z,11.11
2022-09-07T13:29:32.997Z,11.10
2022-09-07T13:32:07.995Z,11.10
2022-09-07T13:34:40.778Z,11.10
2022-09-07T13:37:21.429Z,11.07
2022-09-07T13:39:55.428Z,11.06
2022-09-07T13:42:34.831Z,11.03
2022-09-07T13:45:07.915Z,11.02
2022-09-07T13:47:53.020Z,11.00
2022-09-07T13:50:33.344Z,10.98
2022-09-07T13:53:17.022Z,10.93
2022-09-07T13:55:58.028Z,10.91
2022-09-07T13:58:41.305Z,10.84
2022-09-07T14:01:23.719Z,10.84
2022-09-07T14:04:07.149Z,10.85
2022-09-07T14:06:38.310Z,10.85
2022-09-07T14:09:09.788Z,10.87
2022-09-07T14:11:52.120Z,10.88
2022-09-07T14:14:24.917Z,10.89
2022-09-07T14:17:03.133Z,10.90
2022-09-07T14:19:42.514Z,10.89
2022-09-07T14:22:18.508Z,10.87
2022-09-07T14:24:58.985Z,10.89
2022-09-07T14:27:33.595Z,10.93
2022-09-07T14:30:27.114Z,10.96
2022-09-07T14:32:58.795Z,10.97
2022-09-07T14:35:32.682Z,10.98
2022-09-07T14:38:12.191Z,10.98
2022-09-07T14:40:41.414Z,10.97
2022-09-07T14:43:51.385Z,10.98
2022-09-07T14:46:29.311Z,11.01
2022-09-07T14:49:02.617Z,11.05
2022-09-07T14:51:36.778Z,11.07
2022-09-07T14:54:09.506Z,11.11
2022-09-07T14:56:40.761Z,11.11
2022-09-07T14:59:33.585Z,11.12
2022-09-07T15:02:27.951Z,11.17
2022-09-07T15:05:15.286Z,11.21
2022-09-07T15:07:50.478Z,11.21
2022-09-07T15:10:23.232Z,11.21
2022-09-07T15:13:01.494Z,11.18
2022-09-07T15:15:33.633Z,11.18
2022-09-07T15:18:40.642Z,11.14
2022-09-07T15:21:10.173Z,11.13
2022-09-07T15:23:39.037Z,11.11
2022-09-07T15:27:01.805Z,11.10
2022-09-07T15:29:14.458Z,11.13
2022-09-07T15:31:49.718Z,11.17
2022-09-07T15:34:25.745Z,11.15
2022-09-07T15:36:57.439Z,11.18
2022-09-07T15:39:31.095Z,11.19
2022-09-07T15:42:59.010Z,11.24
2022-09-07T15:44:50.220Z,11.28
2022-09-07T15:50:08.691Z,11.28
2022-09-07T15:52:37.668Z,11.31
2022-09-07T15:55:07.168Z,11.30
2022-09-07T15:58:02.165Z,11.31
2022-09-07T16:00:25.685Z,11.31
2022-09-07T16:03:10.011Z,11.31
2022-09-07T16:05:44.785Z,11.32
2022-09-07T16:11:36.703Z,11.33
2022-09-07T16:14:05.680Z,11.32
2022-09-07T16:19:23.302Z,11.29
2022-09-07T16:21:52.153Z,11.33
2022-09-07T16:24:20.969Z,11.36
2022-09-07T16:26:49.700Z,11.42
2022-09-07T16:29:18.996Z,11.44
2022-09-07T16:34:36.797Z,11.44
2022-09-07T16:37:05.741Z,11.50
2022-09-07T16:39:35.232Z,11.52
2022-09-07T16:42:04.335Z,11.49
2022-09-07T16:44:35.589Z,11.53
2022-09-07T16:47:04.962Z,11.56
2022-09-07T16:49:33.707Z,11.57
2022-09-07T16:52:02.605Z,11.58
2022-09-07T16:54:32.626Z,11.58
2022-09-07T16:57:01.664Z,11.60
2022-09-07T16:59:30.535Z,11.63
2022-09-07T17:01:59.816Z,11.61
2022-09-07T17:04:29.532Z,11.63
2022-09-07T17:06:58.264Z,11.63
2022-09-07T17:09:27.259Z,11.63
2022-09-07T17:11:56.083Z,11.69
2022-09-07T17:14:24.734Z,11.66
2022-09-07T17:16:53.516Z,11.67
2022-09-07T17:19:30.451Z,11.65
2022-09-07T17:22:00.874Z,11.70
2022-09-07T17:24:32.096Z,11.64
2022-09-07T17:27:01.634Z,11.74
2022-09-07T17:29:38.383Z,11.75
2022-09-07T17:32:24.492Z,11.74
2022-09-07T17:34:54.620Z,11.82
2022-09-07T17:37:23.394Z,11.73
2022-09-07T17:39:52.458Z,11.75
2022-09-07T17:42:21.575Z,11.78
2022-09-07T17:44:52.727Z,11.82
2022-09-07T17:47:22.090Z,11.84
2022-09-07T17:49:50.831Z,11.85
2022-09-07T17:52:19.585Z,11.82
2022-09-07T17:54:48.385Z,11.88
2022-09-07T17:57:17.217Z,11.91
2022-09-07T18:02:38.698Z,11.96
2022-09-07T18:05:08.147Z,11.93
2022-09-07T18:07:36.909Z,11.96
2022-09-07T18:10:06.080Z,12.00
2022-09-07T18:12:34.817Z,12.02
2022-09-07T18:15:03.594Z,12.01
2022-09-07T18:17:32.354Z,12.08
2022-09-07T18:20:01.117Z,12.12
2022-09-07T18:22:31.628Z,12.17
2022-09-07T18:25:00.429Z,12.22
2022-09-07T18:27:29.338Z,12.25
2022-09-07T18:29:58.147Z,12.28
2022-09-07T18:32:27.125Z,12.32
2022-09-07T18:34:55.801Z,12.37
2022-09-07T18:37:24.608Z,12.42
2022-09-07T18:39:54.360Z,12.51
2022-09-07T18:42:23.242Z,12.51
2022-09-07T18:47:40.887Z,12.49
2022-09-07T18:50:10.204Z,12.52
2022-09-07T18:52:59.123Z,12.55
2022-09-07T18:55:28.080Z,12.50
2022-09-07T18:57:56.930Z,12.49
2022-09-07T19:00:26.403Z,12.49
2022-09-07T19:02:55.263Z,12.48
2022-09-07T19:08:13.653Z,12.53
2022-09-07T19:10:42.945Z,12.48
2022-09-07T19:13:11.658Z,12.61
2022-09-07T19:15:40.468Z,12.63
2022-09-07T19:18:10.204Z,12.62
2022-09-07T19:20:39.000Z,12.66
2022-09-07T19:23:07.811Z,12.63
2022-09-07T19:25:40.805Z,12.65
2022-09-07T19:28:09.785Z,12.65
2022-09-07T19:30:38.498Z,12.68
2022-09-07T19:33:10.530Z,12.74
2022-09-07T19:35:39.325Z,12.78
2022-09-07T19:38:08.044Z,12.84
2022-09-07T19:40:36.822Z,12.90
2022-09-07T19:43:06.206Z,12.92
2022-09-07T19:45:39.596Z,12.93
2022-09-07T19:48:08.330Z,12.94
2022-09-07T19:50:37.096Z,12.96
2022-09-07T19:53:06.094Z,13.04
2022-09-07T19:55:34.973Z,13.04
2022-09-07T19:58:03.660Z,13.09
2022-09-07T20:00:33.068Z,13.05
2022-09-07T20:03:02.119Z,13.08
2022-09-07T20:05:31.846Z,13.13
2022-09-07T20:08:00.608Z,13.16
2022-09-07T20:10:30.977Z,13.18
2022-09-07T20:12:59.728Z,13.20
2022-09-07T20:15:28.540Z,13.20
2022-09-07T20:17:57.296Z,13.29
2022-09-07T20:20:26.150Z,13.34
2022-09-07T20:22:54.916Z,13.46
2022-09-07T20:25:23.739Z,13.42
2022-09-07T20:27:52.391Z,13.34
2022-09-07T20:30:24.776Z,13.28
2022-09-07T20:32:53.526Z,13.16
2022-09-07T20:35:22.368Z,13.10
2022-09-07T20:37:51.059Z,13.05
2022-09-07T20:40:19.977Z,13.02
2022-09-07T20:42:48.817Z,13.05
2022-09-07T20:45:17.608Z,13.07
2022-09-07T20:47:46.447Z,13.09
2022-09-07T20:50:15.182Z,13.11
2022-09-07T20:52:44.050Z,13.09
2022-09-07T20:55:13.110Z,13.09
2022-09-07T20:57:41.805Z,13.03
2022-09-07T21:00:11.163Z,13.01
2022-09-07T21:02:40.282Z,13.04
2022-09-07T21:05:09.418Z,12.98
2022-09-07T21:07:41.826Z,12.97
2022-09-07T21:10:10.760Z,12.93
2022-09-07T21:12:39.640Z,12.95
2022-09-07T21:15:09.536Z,12.97
2022-09-07T21:17:39.425Z,12.96
2022-09-07T21:20:08.413Z,12.98
2022-09-07T21:22:37.131Z,12.96
2022-09-07T21:25:06.236Z,12.94
2022-09-07T21:27:38.754Z,12.90
2022-09-07T21:30:08.322Z,12.90
2022-09-07T21:32:37.077Z,12.91
2022-09-07T21:35:06.387Z,12.92
2022-09-07T21:37:35.148Z,13.00
2022-09-07T21:40:06.374Z,13.04
2022-09-07T21:42:35.434Z,13.11
2022-09-07T21:45:04.343Z,13.18
2022-09-07T21:47:33.343Z,13.16
2022-09-07T21:50:02.118Z,13.16
2022-09-07T21:52:32.205Z,13.21
2022-09-07T21:55:00.931Z,13.26
2022-09-07T21:57:31.757Z,13.30
2022-09-07T22:00:00.448Z,13.27
2022-09-07T22:02:30.714Z,13.25
2022-09-07T22:04:59.760Z,13.23
2022-09-07T22:07:28.512Z,13.17
2022-09-07T22:09:57.235Z,13.16
2022-09-07T22:12:26.034Z,13.16
2022-09-07T22:14:55.392Z,13.10
2022-09-07T22:17:24.088Z,13.05
2022-09-07T22:19:52.872Z,13.07
2022-09-07T22:22:21.628Z,13.13
2022-09-07T22:24:50.435Z,13.20
2022-09-07T22:27:19.121Z,13.21
2022-09-07T22:29:48.142Z,13.16
2022-09-07T22:32:16.859Z,13.13
2022-09-07T22:34:45.631Z,13.07
2022-09-07T22:37:14.507Z,13.14
2022-09-07T22:39:43.307Z,13.17
2022-09-07T22:42:11.994Z,13.17
2022-09-07T22:44:40.804Z,13.15
2022-09-07T22:47:11.242Z,13.12
2022-09-07T22:49:40.002Z,13.09
2022-09-07T22:52:08.740Z,13.07
2022-09-07T22:54:37.548Z,13.04
2022-09-07T22:57:06.467Z,13.06
2022-09-07T22:59:35.287Z,12.99
2022-09-07T23:02:05.296Z,12.99
2022-09-07T23:04:34.251Z,12.98
2022-09-07T23:07:03.685Z,13.00
2022-09-07T23:09:32.583Z,12.99
2022-09-07T23:12:01.249Z,12.96
2022-09-07T23:14:30.023Z,12.99
2022-09-07T23:16:58.775Z,13.02
2022-09-07T23:19:27.562Z,13.04
2022-09-07T23:21:56.699Z,13.10
2022-09-07T23:24:25.497Z,13.17
2022-09-07T23:26:54.214Z,13.25
2022-09-07T23:29:23.059Z,13.41
2022-09-07T23:31:52.274Z,13.50
2022-09-07T23:34:20.999Z,13.63
2022-09-07T23:36:49.733Z,13.76
2022-09-07T23:39:18.512Z,13.83
2022-09-07T23:41:47.147Z,13.89
2022-09-07T23:44:16.727Z,13.97
2022-09-07T23:46:45.577Z,14.02
2022-09-07T23:49:14.440Z,14.08
2022-09-07T23:51:43.171Z,14.15
2022-09-07T23:54:11.966Z,14.23
2022-09-07T23:56:40.708Z,14.31
2022-09-07T23:59:11.759Z,14.43
